sensor_id;sensor_type;location;lat;lon;timestamp;temperature;humidity
2579;DHT22;1299;48.282;14.398;2022-10-16T00:01:18;13.80;99.90
2579;DHT22;1299;48.282;14.398;2022-10-16T00:03:46;13.80;99.90
2579;DHT22;1299;48.282;14.398;2022-10-16T00:06:16;13.80;99.90
2579;DHT22;1299;48.282;14.398;2022-10-16T00:08:44;13.80;99.90
2579;DHT22;1299;48.282;14.398;2022-10-16T00:11:14;13.80;99.90
2579;DHT22;1299;48.282;14.398;2022-10-16T00:13:43;13.80;99.90
2579;DHT22;1299;48.282;14.398;2022-10-16T00:16:12;13.80;99.90
2579;DHT22;1299;48.282;14.398;2022-10-16T00:18:42;13.80;99.90
2579;DHT22;1299;48.282;14.398;2022-10-16T00:21:11;13.80;99.90
2579;DHT22;1299;48.282;14.398;2022-10-16T00:23:39;13.80;99.90
2579;DHT22;1299;48.282;14.398;2022-10-16T00:26:08;13.80;99.90
2579;DHT22;1299;48.282;14.398;2022-10-16T00:28:37;13.80;99.90
2579;DHT22;1299;48.282;14.398;2022-10-16T00:31:05;13.80;99.90
2579;DHT22;1299;48.282;14.398;2022-10-16T00:33:33;13.80;99.90
2579;DHT22;1299;48.282;14.398;2022-10-16T00:36:03;13.90;99.90
2579;DHT22;1299;48.282;14.398;2022-10-16T00:38:32;13.90;99.90
2579;DHT22;1299;48.282;14.398;2022-10-16T00:41:00;13.90;99.90
2579;DHT22;1299;48.282;14.398;2022-10-16T00:43:37;13.80;99.90
2579;DHT22;1299;48.282;14.398;2022-10-16T00:46:10;13.80;99.90
2579;DHT22;1299;48.282;14.398;2022-10-16T00:48:39;13.80;99.90
2579;DHT22;1299;48.282;14.398;2022-10-16T00:51:08;13.90;99.90
2579;DHT22;1299;48.282;14.398;2022-10-16T00:53:35;13.90;99.90
2579;DHT22;1299;48.282;14.398;2022-10-16T00:56:04;13.80;99.90
2579;DHT22;1299;48.282;14.398;2022-10-16T00:58:31;13.80;99.90
2579;DHT22;1299;48.282;14.398;2022-10-16T01:00:59;13.80;99.90
2579;DHT22;1299;48.282;14.398;2022-10-16T01:03:29;13.80;99.90
2579;DHT22;1299;48.282;14.398;2022-10-16T01:06:09;13.80;99.90
2579;DHT22;1299;48.282;14.398;2022-10-16T01:08:50;13.80;99.90
2579;DHT22;1299;48.282;14.398;2022-10-16T01:11:24;13.80;99.90
2579;DHT22;1299;48.282;14.398;2022-10-16T01:13:55;13.70;99.90
2579;DHT22;1299;48.282;14.398;2022-10-16T01:16:31;13.70;99.90
2579;DHT22;1299;48.282;14.398;2022-10-16T01:19:04;13.80;99.90
2579;DHT22;1299;48.282;14.398;2022-10-16T01:21:39;13.70;99.90
2579;DHT22;1299;48.282;14.398;2022-10-16T01:24:13;13.70;99.90
2579;DHT22;1299;48.282;14.398;2022-10-16T01:27:02;13.50;99.90
2579;DHT22;1299;48.282;14.398;2022-10-16T01:29:33;13.30;99.90
2579;DHT22;1299;48.282;14.398;2022-10-16T01:32:10;13.50;99.90
2579;DHT22;1299;48.282;14.398;2022-10-16T01:34:44;13.60;99.90
2579;DHT22;1299;48.282;14.398;2022-10-16T01:37:16;13.60;99.90
2579;DHT22;1299;48.282;14.398;2022-10-16T01:39:47;13.40;99.90
2579;DHT22;1299;48.282;14.398;2022-10-16T01:42:20;13.40;99.90
2579;DHT22;1299;48.282;14.398;2022-10-16T01:44:50;13.50;99.90
2579;DHT22;1299;48.282;14.398;2022-10-16T01:47:22;13.50;99.90
2579;DHT22;1299;48.282;14.398;2022-10-16T01:49:51;13.50;99.90
2579;DHT22;1299;48.282;14.398;2022-10-16T01:52:22;13.60;99.90
2579;DHT22;1299;48.282;14.398;2022-10-16T01:54:53;13.60;99.90
2579;DHT22;1299;48.282;14.398;2022-10-16T01:57:24;13.30;99.90
2579;DHT22;1299;48.282;14.398;2022-10-16T01:59:56;13.00;99.90
2579;DHT22;1299;48.282;14.398;2022-10-16T02:02:27;13.10;99.90
2579;DHT22;1299;48.282;14.398;2022-10-16T02:04:58;13.30;99.90
2579;DHT22;1299;48.282;14.398;2022-10-16T02:07:28;13.40;99.90
2579;DHT22;1299;48.282;14.398;2022-10-16T02:09:56;13.40;99.90
2579;DHT22;1299;48.282;14.398;2022-10-16T02:12:28;13.40;99.90
2579;DHT22;1299;48.282;14.398;2022-10-16T02:14:56;13.40;99.90
2579;DHT22;1299;48.282;14.398;2022-10-16T02:17:24;13.40;99.90
2579;DHT22;1299;48.282;14.398;2022-10-16T02:19:54;13.40;99.90
2579;DHT22;1299;48.282;14.398;2022-10-16T02:22:26;13.30;99.90
2579;DHT22;1299;48.282;14.398;2022-10-16T02:24:58;13.20;99.90
2579;DHT22;1299;48.282;14.398;2022-10-16T02:27:33;13.20;99.90
2579;DHT22;1299;48.282;14.398;2022-10-16T02:30:06;13.20;99.90
2579;DHT22;1299;48.282;14.398;2022-10-16T02:32:36;13.10;99.90
2579;DHT22;1299;48.282;14.398;2022-10-16T02:35:07;13.10;99.90
2579;DHT22;1299;48.282;14.398;2022-10-16T02:37:37;13.10;99.90
2579;DHT22;1299;48.282;14.398;2022-10-16T02:40:06;13.10;99.90
2579;DHT22;1299;48.282;14.398;2022-10-16T02:42:37;13.10;99.90
2579;DHT22;1299;48.282;14.398;2022-10-16T02:45:06;13.00;99.90
2579;DHT22;1299;48.282;14.398;2022-10-16T02:47:34;12.70;99.90
2579;DHT22;1299;48.282;14.398;2022-10-16T02:50:01;12.40;99.90
2579;DHT22;1299;48.282;14.398;2022-10-16T02:52:28;12.40;99.90
2579;DHT22;1299;48.282;14.398;2022-10-16T02:54:55;12.60;99.90
2579;DHT22;1299;48.282;14.398;2022-10-16T02:57:23;12.80;99.90
2579;DHT22;1299;48.282;14.398;2022-10-16T02:59:51;12.80;99.90
2579;DHT22;1299;48.282;14.398;2022-10-16T03:02:18;12.90;99.90
2579;DHT22;1299;48.282;14.398;2022-10-16T03:04:46;12.90;99.90
2579;DHT22;1299;48.282;14.398;2022-10-16T03:07:13;12.90;99.90
2579;DHT22;1299;48.282;14.398;2022-10-16T03:09:40;12.90;99.90
2579;DHT22;1299;48.282;14.398;2022-10-16T03:12:07;12.80;99.90
2579;DHT22;1299;48.282;14.398;2022-10-16T03:14:35;12.80;99.90
2579;DHT22;1299;48.282;14.398;2022-10-16T03:17:03;12.70;99.90
2579;DHT22;1299;48.282;14.398;2022-10-16T03:19:30;12.80;99.90
2579;DHT22;1299;48.282;14.398;2022-10-16T03:21:58;12.60;99.90
2579;DHT22;1299;48.282;14.398;2022-10-16T03:24:25;12.30;99.90
2579;DHT22;1299;48.282;14.398;2022-10-16T03:26:52;12.50;99.90
2579;DHT22;1299;48.282;14.398;2022-10-16T03:29:19;12.60;99.90
2579;DHT22;1299;48.282;14.398;2022-10-16T03:31:46;12.60;99.90
2579;DHT22;1299;48.282;14.398;2022-10-16T03:34:16;12.70;99.90
2579;DHT22;1299;48.282;14.398;2022-10-16T03:36:43;12.70;99.90
2579;DHT22;1299;48.282;14.398;2022-10-16T03:39:11;12.80;99.90
2579;DHT22;1299;48.282;14.398;2022-10-16T03:41:38;12.80;99.90
2579;DHT22;1299;48.282;14.398;2022-10-16T03:44:05;12.80;99.90
2579;DHT22;1299;48.282;14.398;2022-10-16T03:46:32;12.70;99.90
2579;DHT22;1299;48.282;14.398;2022-10-16T03:48:59;12.60;99.90
2579;DHT22;1299;48.282;14.398;2022-10-16T03:51:28;12.70;99.90
2579;DHT22;1299;48.282;14.398;2022-10-16T03:53:55;12.80;99.90
2579;DHT22;1299;48.282;14.398;2022-10-16T03:56:22;12.80;99.90
2579;DHT22;1299;48.282;14.398;2022-10-16T03:58:50;12.80;99.90
2579;DHT22;1299;48.282;14.398;2022-10-16T04:01:17;12.70;99.90
2579;DHT22;1299;48.282;14.398;2022-10-16T04:03:44;12.70;99.90
2579;DHT22;1299;48.282;14.398;2022-10-16T04:06:11;12.70;99.90
2579;DHT22;1299;48.282;14.398;2022-10-16T04:08:42;12.70;99.90
2579;DHT22;1299;48.282;14.398;2022-10-16T04:11:09;12.70;99.90
2579;DHT22;1299;48.282;14.398;2022-10-16T04:13:37;12.60;99.90
2579;DHT22;1299;48.282;14.398;2022-10-16T04:16:04;12.30;99.90
2579;DHT22;1299;48.282;14.398;2022-10-16T04:18:31;12.50;99.90
2579;DHT22;1299;48.282;14.398;2022-10-16T04:21:02;12.50;99.90
2579;DHT22;1299;48.282;14.398;2022-10-16T04:23:30;12.60;99.90
2579;DHT22;1299;48.282;14.398;2022-10-16T04:25:58;12.50;99.90
2579;DHT22;1299;48.282;14.398;2022-10-16T04:28:26;12.50;99.90
2579;DHT22;1299;48.282;14.398;2022-10-16T04:30:53;12.50;99.90
2579;DHT22;1299;48.282;14.398;2022-10-16T04:33:20;12.60;99.90
2579;DHT22;1299;48.282;14.398;2022-10-16T04:35:48;12.60;99.90
2579;DHT22;1299;48.282;14.398;2022-10-16T04:38:16;12.60;99.90
2579;DHT22;1299;48.282;14.398;2022-10-16T04:40:43;12.60;99.90
2579;DHT22;1299;48.282;14.398;2022-10-16T04:43:11;12.60;99.90
2579;DHT22;1299;48.282;14.398;2022-10-16T04:45:39;12.60;99.90
2579;DHT22;1299;48.282;14.398;2022-10-16T04:48:06;12.60;99.90
2579;DHT22;1299;48.282;14.398;2022-10-16T04:50:33;12.60;99.90
2579;DHT22;1299;48.282;14.398;2022-10-16T04:53:01;12.60;99.90
2579;DHT22;1299;48.282;14.398;2022-10-16T04:55:29;12.60;99.90
2579;DHT22;1299;48.282;14.398;2022-10-16T04:57:56;12.60;99.90
2579;DHT22;1299;48.282;14.398;2022-10-16T05:00:25;12.60;99.90
2579;DHT22;1299;48.282;14.398;2022-10-16T05:02:52;12.50;99.90
2579;DHT22;1299;48.282;14.398;2022-10-16T05:05:20;12.60;99.90
2579;DHT22;1299;48.282;14.398;2022-10-16T05:07:48;12.70;99.90
2579;DHT22;1299;48.282;14.398;2022-10-16T05:10:16;12.70;99.90
2579;DHT22;1299;48.282;14.398;2022-10-16T05:12:45;12.70;99.90
2579;DHT22;1299;48.282;14.398;2022-10-16T05:15:13;12.70;99.90
2579;DHT22;1299;48.282;14.398;2022-10-16T05:17:42;12.70;99.90
2579;DHT22;1299;48.282;14.398;2022-10-16T05:20:09;12.70;99.90
2579;DHT22;1299;48.282;14.398;2022-10-16T05:22:37;12.70;99.90
2579;DHT22;1299;48.282;14.398;2022-10-16T05:25:05;12.60;99.90
2579;DHT22;1299;48.282;14.398;2022-10-16T05:27:32;12.60;99.90
2579;DHT22;1299;48.282;14.398;2022-10-16T05:30:00;12.60;99.90
2579;DHT22;1299;48.282;14.398;2022-10-16T05:32:27;12.60;99.90
2579;DHT22;1299;48.282;14.398;2022-10-16T05:34:56;12.70;99.90
2579;DHT22;1299;48.282;14.398;2022-10-16T05:37:25;12.70;99.90
2579;DHT22;1299;48.282;14.398;2022-10-16T05:39:52;12.70;99.90
2579;DHT22;1299;48.282;14.398;2022-10-16T05:42:19;12.40;99.90
2579;DHT22;1299;48.282;14.398;2022-10-16T05:44:46;12.20;99.90
2579;DHT22;1299;48.282;14.398;2022-10-16T05:47:13;11.90;99.90
2579;DHT22;1299;48.282;14.398;2022-10-16T05:49:41;12.00;99.90
2579;DHT22;1299;48.282;14.398;2022-10-16T05:52:09;12.20;99.90
2579;DHT22;1299;48.282;14.398;2022-10-16T05:54:36;12.40;99.90
2579;DHT22;1299;48.282;14.398;2022-10-16T05:57:04;12.50;99.90
2579;DHT22;1299;48.282;14.398;2022-10-16T05:59:31;12.60;99.90
2579;DHT22;1299;48.282;14.398;2022-10-16T06:01:59;12.60;99.90
2579;DHT22;1299;48.282;14.398;2022-10-16T06:04:27;12.80;99.90
2579;DHT22;1299;48.282;14.398;2022-10-16T06:06:57;14.40;99.90
2579;DHT22;1299;48.282;14.398;2022-10-16T06:09:27;17.10;99.90
2579;DHT22;1299;48.282;14.398;2022-10-16T06:11:54;19.50;99.90
2579;DHT22;1299;48.282;14.398;2022-10-16T06:14:21;20.70;99.90
2579;DHT22;1299;48.282;14.398;2022-10-16T06:16:49;21.40;99.90
2579;DHT22;1299;48.282;14.398;2022-10-16T06:19:16;23.30;99.90
2579;DHT22;1299;48.282;14.398;2022-10-16T06:21:44;23.30;99.90
2579;DHT22;1299;48.282;14.398;2022-10-16T06:24:11;25.00;99.90
2579;DHT22;1299;48.282;14.398;2022-10-16T06:26:40;26.30;99.90
2579;DHT22;1299;48.282;14.398;2022-10-16T06:29:08;25.60;99.90
2579;DHT22;1299;48.282;14.398;2022-10-16T06:31:35;24.60;99.90
2579;DHT22;1299;48.282;14.398;2022-10-16T06:34:03;25.90;99.90
2579;DHT22;1299;48.282;14.398;2022-10-16T06:36:31;27.80;99.90
2579;DHT22;1299;48.282;14.398;2022-10-16T06:38:58;28.00;97.30
2579;DHT22;1299;48.282;14.398;2022-10-16T06:41:25;29.70;95.70
2579;DHT22;1299;48.282;14.398;2022-10-16T06:43:53;30.90;94.70
2579;DHT22;1299;48.282;14.398;2022-10-16T06:46:21;31.00;93.60
2579;DHT22;1299;48.282;14.398;2022-10-16T06:48:49;31.70;91.10
2579;DHT22;1299;48.282;14.398;2022-10-16T06:51:18;31.30;90.70
2579;DHT22;1299;48.282;14.398;2022-10-16T06:53:47;31.20;90.40
2579;DHT22;1299;48.282;14.398;2022-10-16T06:56:16;31.00;91.10
2579;DHT22;1299;48.282;14.398;2022-10-16T06:58:44;27.70;90.20
2579;DHT22;1299;48.282;14.398;2022-10-16T07:01:12;28.20;91.40
2579;DHT22;1299;48.282;14.398;2022-10-16T07:03:42;29.80;90.40
2579;DHT22;1299;48.282;14.398;2022-10-16T07:06:11;30.80;89.20
2579;DHT22;1299;48.282;14.398;2022-10-16T07:08:40;30.10;89.20
2579;DHT22;1299;48.282;14.398;2022-10-16T07:11:09;30.40;90.20
2579;DHT22;1299;48.282;14.398;2022-10-16T07:13:37;30.40;87.20
2579;DHT22;1299;48.282;14.398;2022-10-16T07:16:05;27.50;91.30
2579;DHT22;1299;48.282;14.398;2022-10-16T07:18:35;27.20;90.90
2579;DHT22;1299;48.282;14.398;2022-10-16T07:21:06;25.10;93.50
2579;DHT22;1299;48.282;14.398;2022-10-16T07:23:33;23.20;96.50
2579;DHT22;1299;48.282;14.398;2022-10-16T07:26:00;21.80;99.10
2579;DHT22;1299;48.282;14.398;2022-10-16T07:28:28;20.40;99.90
2579;DHT22;1299;48.282;14.398;2022-10-16T07:30:55;21.30;99.90
2579;DHT22;1299;48.282;14.398;2022-10-16T07:33:26;21.30;99.90
2579;DHT22;1299;48.282;14.398;2022-10-16T07:35:55;20.60;99.90
2579;DHT22;1299;48.282;14.398;2022-10-16T07:38:22;20.70;99.90
2579;DHT22;1299;48.282;14.398;2022-10-16T07:40:56;20.50;99.90
2579;DHT22;1299;48.282;14.398;2022-10-16T07:43:26;20.50;99.90
2579;DHT22;1299;48.282;14.398;2022-10-16T07:45:53;20.30;99.90
2579;DHT22;1299;48.282;14.398;2022-10-16T07:48:22;20.30;99.90
2579;DHT22;1299;48.282;14.398;2022-10-16T07:50:50;20.80;99.90
2579;DHT22;1299;48.282;14.398;2022-10-16T07:53:18;20.60;99.90
2579;DHT22;1299;48.282;14.398;2022-10-16T07:55:46;20.30;99.90
2579;DHT22;1299;48.282;14.398;2022-10-16T07:58:13;20.60;99.90
2579;DHT22;1299;48.282;14.398;2022-10-16T08:00:40;20.80;99.90
2579;DHT22;1299;48.282;14.398;2022-10-16T08:03:08;20.40;99.90
2579;DHT22;1299;48.282;14.398;2022-10-16T08:05:35;20.50;99.90
2579;DHT22;1299;48.282;14.398;2022-10-16T08:08:03;20.60;99.90
2579;DHT22;1299;48.282;14.398;2022-10-16T08:10:31;20.00;99.90
2579;DHT22;1299;48.282;14.398;2022-10-16T08:12:59;19.60;99.90
2579;DHT22;1299;48.282;14.398;2022-10-16T08:15:26;19.90;99.90
2579;DHT22;1299;48.282;14.398;2022-10-16T08:17:57;20.00;99.90
2579;DHT22;1299;48.282;14.398;2022-10-16T08:20:26;20.10;99.90
2579;DHT22;1299;48.282;14.398;2022-10-16T08:22:54;20.10;99.90
2579;DHT22;1299;48.282;14.398;2022-10-16T08:25:21;20.20;99.90
2579;DHT22;1299;48.282;14.398;2022-10-16T08:27:51;19.60;99.90
2579;DHT22;1299;48.282;14.398;2022-10-16T08:30:19;18.60;99.90
2579;DHT22;1299;48.282;14.398;2022-10-16T08:32:46;19.20;99.90
2579;DHT22;1299;48.282;14.398;2022-10-16T08:35:14;19.30;99.90
2579;DHT22;1299;48.282;14.398;2022-10-16T08:37:42;19.70;99.90
2579;DHT22;1299;48.282;14.398;2022-10-16T08:40:17;19.80;99.90
2579;DHT22;1299;48.282;14.398;2022-10-16T08:43:21;20.00;99.90
2579;DHT22;1299;48.282;14.398;2022-10-16T08:46:16;20.60;99.90
2579;DHT22;1299;48.282;14.398;2022-10-16T08:48:50;21.20;99.90
2579;DHT22;1299;48.282;14.398;2022-10-16T08:51:20;21.00;99.90
2579;DHT22;1299;48.282;14.398;2022-10-16T08:53:53;21.00;99.90
2579;DHT22;1299;48.282;14.398;2022-10-16T08:56:21;20.70;99.90
2579;DHT22;1299;48.282;14.398;2022-10-16T08:58:51;20.40;99.90
2579;DHT22;1299;48.282;14.398;2022-10-16T09:01:21;20.00;99.90
2579;DHT22;1299;48.282;14.398;2022-10-16T09:06:46;20.00;99.90
2579;DHT22;1299;48.282;14.398;2022-10-16T09:09:43;20.00;99.90
2579;DHT22;1299;48.282;14.398;2022-10-16T09:12:18;19.90;99.90
2579;DHT22;1299;48.282;14.398;2022-10-16T09:14:56;19.80;99.90
2579;DHT22;1299;48.282;14.398;2022-10-16T09:17:32;20.10;99.90
2579;DHT22;1299;48.282;14.398;2022-10-16T09:20:16;20.20;99.90
2579;DHT22;1299;48.282;14.398;2022-10-16T09:22:45;19.50;99.90
2579;DHT22;1299;48.282;14.398;2022-10-16T09:25:14;20.10;99.90
2579;DHT22;1299;48.282;14.398;2022-10-16T09:27:45;20.30;99.90
2579;DHT22;1299;48.282;14.398;2022-10-16T09:30:17;20.20;99.90
2579;DHT22;1299;48.282;14.398;2022-10-16T09:32:47;20.50;99.90
2579;DHT22;1299;48.282;14.398;2022-10-16T09:35:19;20.70;99.90
2579;DHT22;1299;48.282;14.398;2022-10-16T09:37:49;20.90;99.90
2579;DHT22;1299;48.282;14.398;2022-10-16T09:40:26;20.70;99.90
2579;DHT22;1299;48.282;14.398;2022-10-16T09:43:01;20.90;99.90
2579;DHT22;1299;48.282;14.398;2022-10-16T09:45:30;20.70;99.90
2579;DHT22;1299;48.282;14.398;2022-10-16T09:47:57;20.60;99.90
2579;DHT22;1299;48.282;14.398;2022-10-16T09:50:27;21.00;99.90
2579;DHT22;1299;48.282;14.398;2022-10-16T09:53:05;21.10;99.90
2579;DHT22;1299;48.282;14.398;2022-10-16T09:55:32;21.00;99.90
2579;DHT22;1299;48.282;14.398;2022-10-16T09:58:00;20.80;99.90
2579;DHT22;1299;48.282;14.398;2022-10-16T10:00:27;21.00;99.90
2579;DHT22;1299;48.282;14.398;2022-10-16T10:02:57;20.90;99.90
2579;DHT22;1299;48.282;14.398;2022-10-16T10:05:26;20.70;99.90
2579;DHT22;1299;48.282;14.398;2022-10-16T10:07:55;20.80;99.90
2579;DHT22;1299;48.282;14.398;2022-10-16T10:10:26;20.80;99.90
2579;DHT22;1299;48.282;14.398;2022-10-16T10:12:55;21.10;99.90
2579;DHT22;1299;48.282;14.398;2022-10-16T10:15:23;21.40;99.90
2579;DHT22;1299;48.282;14.398;2022-10-16T10:17:54;21.50;99.90
2579;DHT22;1299;48.282;14.398;2022-10-16T10:20:26;21.40;99.90
2579;DHT22;1299;48.282;14.398;2022-10-16T10:22:54;21.50;99.90
2579;DHT22;1299;48.282;14.398;2022-10-16T10:25:39;21.40;99.90
2579;DHT22;1299;48.282;14.398;2022-10-16T10:28:22;21.60;99.90
2579;DHT22;1299;48.282;14.398;2022-10-16T10:30:59;21.80;99.90
2579;DHT22;1299;48.282;14.398;2022-10-16T10:33:34;21.50;99.90
2579;DHT22;1299;48.282;14.398;2022-10-16T10:36:14;22.10;99.90
2579;DHT22;1299;48.282;14.398;2022-10-16T10:38:49;21.70;99.90
2579;DHT22;1299;48.282;14.398;2022-10-16T10:41:44;22.10;99.90
2579;DHT22;1299;48.282;14.398;2022-10-16T10:44:27;22.60;99.90
2579;DHT22;1299;48.282;14.398;2022-10-16T10:46:57;22.80;99.90
2579;DHT22;1299;48.282;14.398;2022-10-16T10:49:31;22.90;99.90
2579;DHT22;1299;48.282;14.398;2022-10-16T10:52:12;23.00;99.90
2579;DHT22;1299;48.282;14.398;2022-10-16T10:54:45;22.70;99.90
2579;DHT22;1299;48.282;14.398;2022-10-16T10:57:22;23.10;99.90
2579;DHT22;1299;48.282;14.398;2022-10-16T11:00:06;23.00;99.90
2579;DHT22;1299;48.282;14.398;2022-10-16T11:02:41;23.20;99.90
2579;DHT22;1299;48.282;14.398;2022-10-16T11:05:31;23.30;99.90
2579;DHT22;1299;48.282;14.398;2022-10-16T11:08:09;23.80;99.90
2579;DHT22;1299;48.282;14.398;2022-10-16T11:10:45;23.90;99.90
2579;DHT22;1299;48.282;14.398;2022-10-16T11:13:21;24.00;99.90
2579;DHT22;1299;48.282;14.398;2022-10-16T11:15:50;24.40;99.90
2579;DHT22;1299;48.282;14.398;2022-10-16T11:18:22;24.50;99.90
2579;DHT22;1299;48.282;14.398;2022-10-16T11:20:54;24.60;99.90
2579;DHT22;1299;48.282;14.398;2022-10-16T11:23:26;24.90;99.90
2579;DHT22;1299;48.282;14.398;2022-10-16T11:25:56;25.00;99.90
2579;DHT22;1299;48.282;14.398;2022-10-16T11:28:27;25.40;99.90
2579;DHT22;1299;48.282;14.398;2022-10-16T11:30:57;25.30;99.90
2579;DHT22;1299;48.282;14.398;2022-10-16T11:33:30;25.30;99.90
2579;DHT22;1299;48.282;14.398;2022-10-16T11:36:00;25.30;99.90
2579;DHT22;1299;48.282;14.398;2022-10-16T11:38:34;25.30;99.90
2579;DHT22;1299;48.282;14.398;2022-10-16T11:41:12;25.40;99.90
2579;DHT22;1299;48.282;14.398;2022-10-16T11:43:48;25.50;99.90
2579;DHT22;1299;48.282;14.398;2022-10-16T11:46:19;25.50;99.90
2579;DHT22;1299;48.282;14.398;2022-10-16T11:48:52;25.60;99.90
2579;DHT22;1299;48.282;14.398;2022-10-16T11:51:26;25.30;99.90
2579;DHT22;1299;48.282;14.398;2022-10-16T11:54:03;25.30;99.90
2579;DHT22;1299;48.282;14.398;2022-10-16T11:56:36;25.10;99.90
2579;DHT22;1299;48.282;14.398;2022-10-16T11:59:06;25.00;99.90
2579;DHT22;1299;48.282;14.398;2022-10-16T12:01:40;25.30;99.90
2579;DHT22;1299;48.282;14.398;2022-10-16T12:04:19;25.30;99.90
2579;DHT22;1299;48.282;14.398;2022-10-16T12:06:51;25.20;99.90
2579;DHT22;1299;48.282;14.398;2022-10-16T12:09:24;25.30;99.90
2579;DHT22;1299;48.282;14.398;2022-10-16T12:11:53;25.30;99.90
2579;DHT22;1299;48.282;14.398;2022-10-16T12:14:38;25.70;99.90
2579;DHT22;1299;48.282;14.398;2022-10-16T12:17:24;25.80;99.90
2579;DHT22;1299;48.282;14.398;2022-10-16T12:20:00;26.00;99.90
2579;DHT22;1299;48.282;14.398;2022-10-16T12:22:29;25.90;99.90
2579;DHT22;1299;48.282;14.398;2022-10-16T12:24:59;26.00;99.90
2579;DHT22;1299;48.282;14.398;2022-10-16T12:27:29;26.20;99.90
2579;DHT22;1299;48.282;14.398;2022-10-16T12:29:59;26.50;99.90
2579;DHT22;1299;48.282;14.398;2022-10-16T12:32:31;26.80;99.90
2579;DHT22;1299;48.282;14.398;2022-10-16T12:35:00;26.60;99.90
2579;DHT22;1299;48.282;14.398;2022-10-16T12:37:32;26.60;99.90
2579;DHT22;1299;48.282;14.398;2022-10-16T12:40:12;26.80;99.90
2579;DHT22;1299;48.282;14.398;2022-10-16T12:42:40;26.90;99.90
2579;DHT22;1299;48.282;14.398;2022-10-16T12:45:25;27.10;99.90
2579;DHT22;1299;48.282;14.398;2022-10-16T12:47:54;26.90;99.90
2579;DHT22;1299;48.282;14.398;2022-10-16T12:50:26;27.10;99.90
2579;DHT22;1299;48.282;14.398;2022-10-16T12:52:53;27.10;99.90
2579;DHT22;1299;48.282;14.398;2022-10-16T12:55:23;27.20;99.90
2579;DHT22;1299;48.282;14.398;2022-10-16T12:58:05;27.30;99.90
2579;DHT22;1299;48.282;14.398;2022-10-16T13:00:40;27.20;99.90
2579;DHT22;1299;48.282;14.398;2022-10-16T13:03:37;27.20;99.90
2579;DHT22;1299;48.282;14.398;2022-10-16T13:06:28;26.40;99.90
2579;DHT22;1299;48.282;14.398;2022-10-16T13:09:07;25.70;99.90
2579;DHT22;1299;48.282;14.398;2022-10-16T13:11:55;25.70;99.90
2579;DHT22;1299;48.282;14.398;2022-10-16T13:17:23;26.30;99.90
2579;DHT22;1299;48.282;14.398;2022-10-16T13:19:58;26.50;99.90
2579;DHT22;1299;48.282;14.398;2022-10-16T13:22:33;26.20;99.90
2579;DHT22;1299;48.282;14.398;2022-10-16T13:25:16;26.50;99.90
2579;DHT22;1299;48.282;14.398;2022-10-16T13:27:52;26.10;99.90
2579;DHT22;1299;48.282;14.398;2022-10-16T13:30:23;25.90;99.90
2579;DHT22;1299;48.282;14.398;2022-10-16T13:32:57;26.10;99.90
2579;DHT22;1299;48.282;14.398;2022-10-16T13:35:27;25.80;99.90
2579;DHT22;1299;48.282;14.398;2022-10-16T13:38:11;25.90;99.90
2579;DHT22;1299;48.282;14.398;2022-10-16T13:40:52;25.50;99.90
2579;DHT22;1299;48.282;14.398;2022-10-16T13:43:25;25.70;99.90
2579;DHT22;1299;48.282;14.398;2022-10-16T13:45:54;25.70;99.90
2579;DHT22;1299;48.282;14.398;2022-10-16T13:48:22;25.30;99.90
2579;DHT22;1299;48.282;14.398;2022-10-16T13:50:59;24.90;99.90
2579;DHT22;1299;48.282;14.398;2022-10-16T13:53:26;25.00;99.90
2579;DHT22;1299;48.282;14.398;2022-10-16T13:55:54;25.20;99.90
2579;DHT22;1299;48.282;14.398;2022-10-16T13:58:22;25.20;99.90
2579;DHT22;1299;48.282;14.398;2022-10-16T14:00:56;24.80;99.90
2579;DHT22;1299;48.282;14.398;2022-10-16T14:03:24;25.30;99.90
2579;DHT22;1299;48.282;14.398;2022-10-16T14:05:53;24.80;99.90
2579;DHT22;1299;48.282;14.398;2022-10-16T14:08:22;25.10;99.90
2579;DHT22;1299;48.282;14.398;2022-10-16T14:10:52;25.00;99.90
2579;DHT22;1299;48.282;14.398;2022-10-16T14:13:29;25.00;99.90
2579;DHT22;1299;48.282;14.398;2022-10-16T14:16:05;24.40;99.90
2579;DHT22;1299;48.282;14.398;2022-10-16T14:18:33;24.30;99.90
2579;DHT22;1299;48.282;14.398;2022-10-16T14:21:05;24.00;99.90
2579;DHT22;1299;48.282;14.398;2022-10-16T14:23:36;24.20;99.90
2579;DHT22;1299;48.282;14.398;2022-10-16T14:26:18;24.40;99.90
2579;DHT22;1299;48.282;14.398;2022-10-16T14:28:49;24.50;99.90
2579;DHT22;1299;48.282;14.398;2022-10-16T14:31:28;24.70;99.90
2579;DHT22;1299;48.282;14.398;2022-10-16T14:33:56;24.60;99.90
2579;DHT22;1299;48.282;14.398;2022-10-16T14:36:24;24.30;99.90
2579;DHT22;1299;48.282;14.398;2022-10-16T14:39:01;24.30;99.90
2579;DHT22;1299;48.282;14.398;2022-10-16T14:41:30;24.40;99.90
2579;DHT22;1299;48.282;14.398;2022-10-16T14:44:02;24.00;99.90
2579;DHT22;1299;48.282;14.398;2022-10-16T14:46:35;24.10;99.90
2579;DHT22;1299;48.282;14.398;2022-10-16T14:49:15;24.10;99.90
2579;DHT22;1299;48.282;14.398;2022-10-16T14:51:43;24.20;99.90
2579;DHT22;1299;48.282;14.398;2022-10-16T14:54:11;24.20;99.90
2579;DHT22;1299;48.282;14.398;2022-10-16T14:56:46;23.90;99.90
2579;DHT22;1299;48.282;14.398;2022-10-16T14:59:18;23.80;99.90
2579;DHT22;1299;48.282;14.398;2022-10-16T15:01:46;23.80;99.90
2579;DHT22;1299;48.282;14.398;2022-10-16T15:04:14;23.60;99.90
2579;DHT22;1299;48.282;14.398;2022-10-16T15:06:42;23.90;99.90
2579;DHT22;1299;48.282;14.398;2022-10-16T15:09:09;24.00;99.90
2579;DHT22;1299;48.282;14.398;2022-10-16T15:11:37;24.00;99.90
2579;DHT22;1299;48.282;14.398;2022-10-16T15:14:04;24.00;99.90
2579;DHT22;1299;48.282;14.398;2022-10-16T15:16:33;23.80;99.90
2579;DHT22;1299;48.282;14.398;2022-10-16T15:19:00;23.80;99.90
2579;DHT22;1299;48.282;14.398;2022-10-16T15:21:30;23.60;99.90
2579;DHT22;1299;48.282;14.398;2022-10-16T15:23:58;23.60;99.90
2579;DHT22;1299;48.282;14.398;2022-10-16T15:26:26;23.70;99.90
2579;DHT22;1299;48.282;14.398;2022-10-16T15:28:54;23.60;99.90
2579;DHT22;1299;48.282;14.398;2022-10-16T15:31:23;23.70;99.90
2579;DHT22;1299;48.282;14.398;2022-10-16T15:33:53;23.50;99.90
2579;DHT22;1299;48.282;14.398;2022-10-16T15:36:27;23.80;99.90
2579;DHT22;1299;48.282;14.398;2022-10-16T15:38:56;23.70;99.90
2579;DHT22;1299;48.282;14.398;2022-10-16T15:41:25;23.70;99.90
2579;DHT22;1299;48.282;14.398;2022-10-16T15:43:53;23.50;99.90
2579;DHT22;1299;48.282;14.398;2022-10-16T15:46:22;23.40;99.90
2579;DHT22;1299;48.282;14.398;2022-10-16T15:48:56;23.20;99.90
2579;DHT22;1299;48.282;14.398;2022-10-16T15:51:25;23.00;99.90
2579;DHT22;1299;48.282;14.398;2022-10-16T15:53:53;22.80;99.90
2579;DHT22;1299;48.282;14.398;2022-10-16T15:56:20;22.60;99.90
2579;DHT22;1299;48.282;14.398;2022-10-16T15:58:48;22.40;99.90
2579;DHT22;1299;48.282;14.398;2022-10-16T16:01:15;22.30;99.90
2579;DHT22;1299;48.282;14.398;2022-10-16T16:03:43;22.20;99.90
2579;DHT22;1299;48.282;14.398;2022-10-16T16:06:13;22.00;99.90
2579;DHT22;1299;48.282;14.398;2022-10-16T16:08:41;21.90;99.90
2579;DHT22;1299;48.282;14.398;2022-10-16T16:11:10;21.70;99.90
2579;DHT22;1299;48.282;14.398;2022-10-16T16:13:38;21.40;99.90